Time;durP1;ratioP1;P1;durP2;ratioP2;P2;SDS_P1;SDS_P2;PMS_P1;PMS_P2;Temp;Humidity;BMP_temperature;BMP_pressure;BME280_temperature;BME280_humidity;BME280_pressure;Samples;Min_cycle;Max_cycle;Signal;HPM_P1;HPM_P2
2021/04/10 00:01:04;;;;;;;21.03;5.70;;;;;;;;;;5028579;28;20026;-59
2021/04/10 00:03:29;;;;;;;16.70;4.78;;;;;;;;;;5016062;28;20026;-59
2021/04/10 00:05:54;;;;;;;17.77;5.73;;;;;;;;;;5012565;28;20058;-59
2021/04/10 00:08:20;;;;;;;19.93;4.90;;;;;;;;;;5013218;28;20464;-59
2021/04/10 00:10:45;;;;;;;22.67;5.83;;;;;;;;;;5011194;28;20034;-60
2021/04/10 00:13:11;;;;;;;14.93;5.10;;;;;;;;;;5011891;28;20033;-58
2021/04/10 00:15:36;;;;;;;25.30;4.97;;;;;;;;;;5012534;28;20048;-58
2021/04/10 00:18:01;;;;;;;14.43;4.70;;;;;;;;;;5009777;28;20026;-58
2021/04/10 00:20:27;;;;;;;16.77;4.60;;;;;;;;;;5015537;28;20036;-59
2021/04/10 00:22:52;;;;;;;22.33;6.23;;;;;;;;;;5036425;28;20045;-58
2021/04/10 00:25:18;;;;;;;12.85;4.20;;;;;;;;;;5021751;28;20033;-58
2021/04/10 00:27:44;;;;;;;17.67;4.72;;;;;;;;;;5022900;28;20439;-57
2021/04/10 00:30:11;;;;;;;15.13;4.32;;;;;;;;;;5021577;28;20033;-58
2021/04/10 00:32:36;;;;;;;17.47;4.43;;;;;;;;;;5022541;28;20036;-57
2021/04/10 00:35:02;;;;;;;14.97;4.40;;;;;;;;;;5038335;28;20342;-59
2021/04/10 00:37:27;;;;;;;21.50;4.30;;;;;;;;;;5045059;28;20038;-59
2021/04/10 00:39:52;;;;;;;11.10;4.37;;;;;;;;;;5015959;28;20022;-58
2021/04/10 00:42:17;;;;;;;14.97;5.70;;;;;;;;;;5014172;28;20034;-59
2021/04/10 00:44:43;;;;;;;18.37;4.80;;;;;;;;;;5028457;28;20056;-58
2021/04/10 00:47:08;;;;;;;16.80;4.57;;;;;;;;;;5014145;28;20180;-59
2021/04/10 00:49:34;;;;;;;17.13;5.28;;;;;;;;;;5013393;28;20339;-59
2021/04/10 00:52:00;;;;;;;17.97;4.17;;;;;;;;;;5013315;28;20029;-59
2021/04/10 00:54:26;;;;;;;15.23;3.95;;;;;;;;;;5014004;28;20041;-60
2021/04/10 00:56:51;;;;;;;16.50;4.18;;;;;;;;;;5011728;28;20033;-59
2021/04/10 00:59:17;;;;;;;7.90;3.83;;;;;;;;;;5013792;28;20061;-59
2021/04/10 01:01:43;;;;;;;14.13;4.35;;;;;;;;;;5028284;28;20096;-59
2021/04/10 01:04:09;;;;;;;16.50;3.87;;;;;;;;;;5011806;28;20026;-58
2021/04/10 01:06:34;;;;;;;24.57;5.57;;;;;;;;;;5012106;28;20054;-59
2021/04/10 01:09:00;;;;;;;13.33;3.70;;;;;;;;;;5011807;28;20072;-59
2021/04/10 01:11:44;;;;;;;17.70;5.93;;;;;;;;;;5013164;28;20429;-59
2021/04/10 01:14:12;;;;;;;14.55;4.65;;;;;;;;;;5012191;28;20038;-58
2021/04/10 01:16:40;;;;;;;20.25;5.20;;;;;;;;;;5028592;28;20034;-58
2021/04/10 01:19:05;;;;;;;14.60;4.00;;;;;;;;;;5013129;28;20360;-59
2021/04/10 01:21:44;;;;;;;12.15;3.72;;;;;;;;;;5028623;28;20494;-59
2021/04/10 01:24:09;;;;;;;;;;;;;;;;;;5012366;28;20025;-58
2021/04/10 01:26:58;;;;;;;13.23;3.43;;;;;;;;;;5013166;28;19905;-59
2021/04/10 01:29:23;;;;;;;13.73;3.33;;;;;;;;;;5007381;28;20037;-58
2021/04/10 01:31:51;;;;;;;12.13;3.88;;;;;;;;;;5027587;28;20482;-58
2021/04/10 01:34:25;;;;;;;12.02;4.43;;;;;;;;;;5012694;28;20033;-58
2021/04/10 01:36:52;;;;;;;14.65;4.47;;;;;;;;;;5027515;28;20057;-59
2021/04/10 01:39:18;;;;;;;13.20;4.00;;;;;;;;;;5013111;28;20124;-58
2021/04/10 01:41:46;;;;;;;11.10;3.67;;;;;;;;;;5011092;28;20034;-59
2021/04/10 01:44:14;;;;;;;14.88;4.28;;;;;;;;;;5013007;28;20026;-59
2021/04/10 01:46:39;;;;;;;20.60;3.90;;;;;;;;;;5012927;28;20057;-59
2021/04/10 01:49:06;;;;;;;13.88;4.13;;;;;;;;;;4994625;28;20404;-58
2021/04/10 01:51:31;;;;;;;8.50;4.22;;;;;;;;;;5012672;28;20034;-58
2021/04/10 01:53:58;;;;;;;13.23;4.13;;;;;;;;;;5010824;28;20041;-59
2021/04/10 01:56:25;;;;;;;10.32;3.17;;;;;;;;;;5011494;28;20030;-59
2021/04/10 01:58:55;;;;;;;14.20;3.20;;;;;;;;;;5010553;28;20457;-59
2021/04/10 02:01:31;;;;;;;12.77;4.05;;;;;;;;;;5010743;28;20041;-60
2021/04/10 02:03:58;;;;;;;13.07;3.28;;;;;;;;;;5027196;28;20493;-58
2021/04/10 02:06:26;;;;;;;9.55;3.42;;;;;;;;;;5010781;28;20054;-59
2021/04/10 02:09:00;;;;;;;10.00;3.10;;;;;;;;;;5011974;28;20038;-59
2021/04/10 02:11:35;;;;;;;14.45;3.67;;;;;;;;;;5012405;28;20042;-59
2021/04/10 02:14:05;;;;;;;12.32;4.22;;;;;;;;;;5026904;28;20283;-60
2021/04/10 02:16:57;;;;;;;12.13;3.45;;;;;;;;;;5010288;28;20050;-59
2021/04/10 02:19:30;;;;;;;9.27;3.08;;;;;;;;;;5011141;28;20038;-59
2021/04/10 02:22:03;;;;;;;16.60;4.00;;;;;;;;;;5010350;28;20037;-58
2021/04/10 02:24:31;;;;;;;11.60;3.92;;;;;;;;;;5012279;28;20028;-59
2021/04/10 02:27:02;;;;;;;13.43;2.90;;;;;;;;;;5010438;28;20026;-59
2021/04/10 02:29:30;;;;;;;15.68;3.85;;;;;;;;;;5027224;28;20396;-59
2021/04/10 02:32:05;;;;;;;18.30;4.68;;;;;;;;;;5009948;28;20026;-59
2021/04/10 02:34:43;;;;;;;12.90;3.75;;;;;;;;;;5011038;28;20033;-58
2021/04/10 02:37:09;;;;;;;13.02;3.47;;;;;;;;;;5011535;28;20040;-59
2021/04/10 02:39:39;;;;;;;11.23;4.10;;;;;;;;;;5010580;28;20486;-59
2021/04/10 02:42:06;;;;;;;14.10;3.85;;;;;;;;;;5026479;28;20045;-58
2021/04/10 02:44:37;;;;;;;13.32;4.53;;;;;;;;;;5011603;28;20123;-59
2021/04/10 02:47:06;;;;;;;9.00;3.40;;;;;;;;;;5009927;28;20490;-58
2021/04/10 02:49:34;;;;;;;14.30;4.18;;;;;;;;;;5010591;28;20029;-59
2021/04/10 02:52:01;;;;;;;13.32;3.78;;;;;;;;;;5011184;28;20042;-58
2021/04/10 02:54:29;;;;;;;14.68;4.07;;;;;;;;;;4994574;28;20049;-59
2021/04/10 02:56:54;;;;;;;;;;;;;;;;;;5010475;28;20076;-59
2021/04/10 02:59:20;;;;;;;12.20;4.33;;;;;;;;;;5010737;28;20317;-59
2021/04/10 03:01:49;;;;;;;15.70;4.13;;;;;;;;;;5010534;28;20469;-59
2021/04/10 03:04:15;;;;;;;11.82;3.38;;;;;;;;;;5009854;28;20033;-59
2021/04/10 03:06:41;;;;;;;15.65;4.20;;;;;;;;;;5026842;28;20340;-59
2021/04/10 03:09:07;;;;;;;14.73;3.75;;;;;;;;;;5009417;28;20038;-58
2021/04/10 03:11:32;;;;;;;13.45;4.78;;;;;;;;;;5010609;28;20038;-59
2021/04/10 03:13:58;;;;;;;11.77;4.22;;;;;;;;;;5014315;28;20034;-59
2021/04/10 03:16:28;;;;;;;16.90;4.43;;;;;;;;;;5014545;28;20102;-59
2021/04/10 03:18:56;;;;;;;14.68;4.05;;;;;;;;;;5022229;28;20029;-59
2021/04/10 03:21:27;;;;;;;16.70;4.78;;;;;;;;;;5014562;28;20038;-59
2021/04/10 03:24:01;;;;;;;19.92;5.13;;;;;;;;;;5015024;28;20038;-59
2021/04/10 03:26:26;;;;;;;16.70;3.87;;;;;;;;;;5038244;28;20038;-59
2021/04/10 03:28:55;;;;;;;13.90;4.25;;;;;;;;;;5023505;28;20018;-58
2021/04/10 03:31:20;;;;;;;13.30;4.17;;;;;;;;;;5025200;28;20046;-59
2021/04/10 03:33:46;;;;;;;14.73;4.13;;;;;;;;;;5024029;28;20263;-58
2021/04/10 03:36:11;;;;;;;11.90;4.35;;;;;;;;;;5020555;28;20037;-60
2021/04/10 03:38:40;;;;;;;14.05;4.10;;;;;;;;;;5023413;28;20035;-59
2021/04/10 03:41:07;;;;;;;17.48;4.05;;;;;;;;;;5040302;28;20025;-59
2021/04/10 03:43:33;;;;;;;12.23;4.05;;;;;;;;;;5023974;28;20028;-58
2021/04/10 03:46:01;;;;;;;14.13;4.03;;;;;;;;;;5047480;28;20343;-60
2021/04/10 03:48:28;;;;;;;15.13;3.85;;;;;;;;;;5020985;28;20033;-59
2021/04/10 03:51:00;;;;;;;26.85;6.97;;;;;;;;;;5020694;28;20049;-58
2021/04/10 03:53:31;;;;;;;11.73;4.00;;;;;;;;;;5040280;28;20523;-59
2021/04/10 03:56:02;;;;;;;11.65;4.10;;;;;;;;;;5025386;28;20469;-58
2021/04/10 03:58:31;;;;;;;14.18;4.32;;;;;;;;;;5033508;28;20389;-58
2021/04/10 04:00:57;;;;;;;11.63;3.92;;;;;;;;;;5049901;28;20053;-58
2021/04/10 04:03:22;;;;;;;15.57;4.55;;;;;;;;;;5034749;28;20083;-58
2021/04/10 04:05:48;;;;;;;15.63;4.77;;;;;;;;;;5033222;28;20089;-59
2021/04/10 04:08:13;;;;;;;12.93;3.80;;;;;;;;;;5049314;28;20034;-59
2021/04/10 04:10:39;;;;;;;11.23;5.07;;;;;;;;;;5034135;28;20492;-59
2021/04/10 04:13:04;;;;;;;11.03;3.73;;;;;;;;;;5033934;28;20032;-57
2021/04/10 04:15:29;;;;;;;13.63;4.77;;;;;;;;;;5034525;28;20049;-59
2021/04/10 04:17:55;;;;;;;20.43;4.67;;;;;;;;;;5033031;28;20492;-59
2021/04/10 04:20:20;;;;;;;14.63;5.27;;;;;;;;;;5032282;28;20354;-59
2021/04/10 04:22:45;;;;;;;13.43;4.47;;;;;;;;;;5034317;28;20025;-59
2021/04/10 04:25:11;;;;;;;10.77;4.30;;;;;;;;;;5032929;28;20053;-59
2021/04/10 04:27:37;;;;;;;13.80;4.47;;;;;;;;;;5034251;28;20052;-59
2021/04/10 04:30:06;;;;;;;12.02;4.10;;;;;;;;;;5033657;28;20017;-58
2021/04/10 04:32:31;;;;;;;9.57;4.53;;;;;;;;;;5033934;28;20046;-60
2021/04/10 04:34:56;;;;;;;17.83;4.07;;;;;;;;;;5049131;28;20052;-58
2021/04/10 04:37:22;;;;;;;20.20;4.57;;;;;;;;;;5033293;28;20029;-58
2021/04/10 04:39:47;;;;;;;12.60;4.50;;;;;;;;;;5032283;28;20022;-58
2021/04/10 04:42:13;;;;;;;11.90;4.00;;;;;;;;;;5033195;28;20493;-57
2021/04/10 04:44:38;;;;;;;23.77;4.83;;;;;;;;;;5048963;28;20044;-59
2021/04/10 04:47:04;;;;;;;12.23;5.07;;;;;;;;;;5033035;28;20056;-57
2021/04/10 04:49:29;;;;;;;13.13;4.77;;;;;;;;;;5033863;28;20026;-58
2021/04/10 04:51:55;;;;;;;12.83;4.70;;;;;;;;;;5033215;28;20057;-58
2021/04/10 04:54:20;;;;;;;14.45;4.18;;;;;;;;;;5032721;28;20500;-57
2021/04/10 04:56:46;;;;;;;11.73;4.20;;;;;;;;;;5033672;28;20464;-59
2021/04/10 04:59:11;;;;;;;13.83;4.17;;;;;;;;;;5033014;28;20048;-59
2021/04/10 05:01:37;;;;;;;12.23;4.50;;;;;;;;;;5033826;28;20044;-59
2021/04/10 05:04:02;;;;;;;14.70;4.10;;;;;;;;;;5049032;28;20192;-59
2021/04/10 05:06:27;;;;;;;15.00;4.23;;;;;;;;;;5031038;28;20109;-59
2021/04/10 05:08:53;;;;;;;18.53;5.57;;;;;;;;;;5032126;28;20033;-59
2021/04/10 05:11:18;;;;;;;11.20;3.93;;;;;;;;;;5033229;28;20393;-60
2021/04/10 05:13:43;;;;;;;11.97;4.40;;;;;;;;;;5034098;28;20034;-59
2021/04/10 05:16:09;;;;;;;12.60;4.30;;;;;;;;;;5034084;28;20466;-59
2021/04/10 05:18:34;;;;;;;12.80;4.10;;;;;;;;;;5033362;28;20021;-59
2021/04/10 05:21:00;;;;;;;14.03;4.23;;;;;;;;;;5033486;28;20068;-59
2021/04/10 05:23:25;;;;;;;9.20;4.07;;;;;;;;;;5032628;28;20037;-59
2021/04/10 05:25:50;;;;;;;18.53;4.23;;;;;;;;;;5031917;28;20061;-59
2021/04/10 05:28:16;;;;;;;17.37;4.43;;;;;;;;;;5032430;28;20040;-59
2021/04/10 05:30:41;;;;;;;12.30;4.57;;;;;;;;;;5031631;28;20454;-58
2021/04/10 05:33:07;;;;;;;23.80;4.60;;;;;;;;;;5047201;28;20045;-58
2021/04/10 05:35:32;;;;;;;14.97;4.73;;;;;;;;;;5032387;28;20038;-58
2021/04/10 05:37:58;;;;;;;17.13;4.80;;;;;;;;;;5032256;28;20492;-59
2021/04/10 05:40:23;;;;;;;14.60;4.33;;;;;;;;;;5032151;28;20029;-58
2021/04/10 05:42:49;;;;;;;11.83;4.30;;;;;;;;;;5048201;28;20030;-57
2021/04/10 05:45:14;;;;;;;12.07;4.40;;;;;;;;;;5032356;28;20030;-58
2021/04/10 05:47:40;;;;;;;15.97;4.17;;;;;;;;;;5032927;28;20480;-58
2021/04/10 05:50:06;;;;;;;14.50;4.82;;;;;;;;;;5047762;28;20503;-58
2021/04/10 05:52:32;;;;;;;12.60;5.60;;;;;;;;;;5031900;28;20069;-58
2021/04/10 05:54:57;;;;;;;12.88;4.65;;;;;;;;;;5015457;28;20044;-58
2021/04/10 05:57:28;;;;;;;16.92;4.75;;;;;;;;;;5130149;27;20684;-59
2021/04/10 05:59:54;;;;;;;14.13;4.37;;;;;;;;;;5130423;28;20062;-59
2021/04/10 06:02:19;;;;;;;17.97;5.50;;;;;;;;;;5129727;27;20467;-58
2021/04/10 06:04:45;;;;;;;14.73;4.43;;;;;;;;;;5130657;27;20119;-59
2021/04/10 06:07:10;;;;;;;13.43;5.17;;;;;;;;;;5128196;28;20023;-57
2021/04/10 06:09:35;;;;;;;10.13;3.70;;;;;;;;;;5129841;28;20031;-59
2021/04/10 06:12:01;;;;;;;12.60;3.90;;;;;;;;;;5129877;27;20323;-59
2021/04/10 06:14:26;;;;;;;7.47;3.43;;;;;;;;;;5127843;28;20032;-59
2021/04/10 06:16:52;;;;;;;14.73;4.63;;;;;;;;;;5129356;27;20548;-59
2021/04/10 06:19:18;;;;;;;12.73;3.90;;;;;;;;;;5129004;27;20038;-59
2021/04/10 06:21:44;;;;;;;11.73;3.53;;;;;;;;;;5129412;27;20272;-58
2021/04/10 06:24:10;;;;;;;17.83;4.33;;;;;;;;;;5129687;27;20023;-58
2021/04/10 06:26:35;;;;;;;14.85;4.22;;;;;;;;;;5127400;28;20114;-58
2021/04/10 06:29:01;;;;;;;19.23;4.07;;;;;;;;;;5129749;27;20039;-60
2021/04/10 06:31:26;;;;;;;16.40;5.00;;;;;;;;;;5127652;28;20011;-58
2021/04/10 06:33:51;;;;;;;12.03;4.70;;;;;;;;;;5128203;28;20037;-59
2021/04/10 06:36:17;;;;;;;23.43;4.43;;;;;;;;;;5128824;27;20039;-58
2021/04/10 06:38:42;;;;;;;8.83;4.27;;;;;;;;;;5129345;27;20037;-58
2021/04/10 06:41:10;;;;;;;25.30;4.70;;;;;;;;;;5127984;28;20067;-58
2021/04/10 06:43:36;;;;;;;12.48;4.35;;;;;;;;;;5128424;27;20031;-59
2021/04/10 06:46:01;;;;;;;16.53;4.73;;;;;;;;;;5129023;27;20039;-59
2021/04/10 06:48:27;;;;;;;12.47;4.07;;;;;;;;;;5128399;27;20032;-60
2021/04/10 06:50:53;;;;;;;19.40;4.10;;;;;;;;;;5129059;27;20025;-59
2021/04/10 06:53:20;;;;;;;21.57;5.37;;;;;;;;;;5128450;27;20092;-58
2021/04/10 06:55:50;;;;;;;14.85;4.53;;;;;;;;;;5127039;28;20131;-59
2021/04/10 06:58:23;;;;;;;13.88;4.10;;;;;;;;;;5128630;27;20558;-58
2021/04/10 07:00:52;;;;;;;10.25;4.13;;;;;;;;;;5127790;28;20034;-58
2021/04/10 07:03:17;;;;;;;13.27;4.25;;;;;;;;;;5128161;27;20051;-57
2021/04/10 07:05:43;;;;;;;20.13;4.87;;;;;;;;;;5127525;28;20094;-59
2021/04/10 07:08:08;;;;;;;15.77;4.07;;;;;;;;;;5119364;27;20016;-59
2021/04/10 07:10:33;;;;;;;12.47;3.83;;;;;;;;;;5114521;28;20478;-59
2021/04/10 07:12:59;;;;;;;19.80;5.93;;;;;;;;;;5114909;27;20035;-59
2021/04/10 07:15:25;;;;;;;19.17;4.37;;;;;;;;;;5114153;28;20123;-59
2021/04/10 07:17:51;;;;;;;15.10;4.65;;;;;;;;;;5114750;28;20110;-58
2021/04/10 07:20:33;;;;;;;14.70;4.85;;;;;;;;;;5114705;28;20473;-58
2021/04/10 07:23:04;;;;;;;14.93;4.88;;;;;;;;;;5114889;28;20439;-57
2021/04/10 07:25:31;;;;;;;15.07;5.38;;;;;;;;;;5113925;28;20039;-58
2021/04/10 07:28:16;;;;;;;12.90;4.68;;;;;;;;;;5114575;28;20152;-59
2021/04/10 07:31:03;;;;;;;14.02;4.50;;;;;;;;;;5112207;28;20038;-59
2021/04/10 07:33:32;;;;;;;10.88;4.63;;;;;;;;;;5112944;28;20050;-58
2021/04/10 07:35:59;;;;;;;14.95;4.70;;;;;;;;;;5114343;28;20039;-58
2021/04/10 07:38:25;;;;;;;14.05;4.30;;;;;;;;;;5113367;28;20035;-59
2021/04/10 07:40:51;;;;;;;14.93;4.57;;;;;;;;;;5114098;28;20467;-60
2021/04/10 07:43:23;;;;;;;17.33;4.97;;;;;;;;;;5114339;27;20043;-60
2021/04/10 07:45:49;;;;;;;18.65;5.47;;;;;;;;;;5112939;28;20270;-59
2021/04/10 07:48:17;;;;;;;11.50;3.90;;;;;;;;;;5113935;28;20028;-59
2021/04/10 07:50:43;;;;;;;16.05;5.55;;;;;;;;;;5113372;28;20099;-59
2021/04/10 07:53:25;;;;;;;14.63;4.07;;;;;;;;;;5112769;28;20070;-59
2021/04/10 07:55:52;;;;;;;12.65;4.72;;;;;;;;;;5112200;28;20047;-59
2021/04/10 07:58:20;;;;;;;16.58;4.15;;;;;;;;;;5112629;28;20040;-59
2021/04/10 08:00:46;;;;;;;15.90;4.22;;;;;;;;;;5111936;28;20436;-61
2021/04/10 08:03:21;;;;;;;11.10;4.57;;;;;;;;;;5114279;28;20036;-59
2021/04/10 08:05:46;;;;;;;13.65;5.05;;;;;;;;;;5111665;28;20543;-59
2021/04/10 08:08:17;;;;;;;6.67;3.33;;;;;;;;;;5113689;28;20024;-58
2021/04/10 08:10:46;;;;;;;16.17;5.18;;;;;;;;;;5113182;28;20023;-59
2021/04/10 08:13:11;;;;;;;13.13;4.70;;;;;;;;;;5113765;28;20699;-59
2021/04/10 08:15:37;;;;;;;10.33;3.80;;;;;;;;;;5113082;28;20222;-59
2021/04/10 08:18:20;;;;;;;14.27;4.43;;;;;;;;;;5112668;28;20424;-59
2021/04/10 08:20:48;;;;;;;18.13;4.43;;;;;;;;;;5112527;28;20168;-60
2021/04/10 08:23:17;;;;;;;12.18;4.43;;;;;;;;;;5112372;28;20058;-59
2021/04/10 08:25:43;;;;;;;14.15;3.67;;;;;;;;;;5113589;28;20100;-59
2021/04/10 08:28:08;;;;;;;14.20;4.13;;;;;;;;;;5112552;28;20058;-60
2021/04/10 08:30:34;;;;;;;13.45;4.05;;;;;;;;;;5111994;28;20040;-59
2021/04/10 08:32:59;;;;;;;10.17;3.80;;;;;;;;;;5113951;28;20055;-59
2021/04/10 08:35:25;;;;;;;12.80;3.87;;;;;;;;;;5113876;28;20484;-59
2021/04/10 08:37:52;;;;;;;8.82;2.97;;;;;;;;;;5113760;28;20035;-59
2021/04/10 08:40:25;;;;;;;11.05;3.55;;;;;;;;;;5113680;28;20031;-59
2021/04/10 08:42:54;;;;;;;14.60;3.80;;;;;;;;;;5111614;28;20031;-59
2021/04/10 08:45:22;;;;;;;10.38;3.47;;;;;;;;;;5112420;28;20020;-59
2021/04/10 08:47:47;;;;;;;12.30;4.22;;;;;;;;;;5111870;28;20042;-59
2021/04/10 08:50:13;;;;;;;9.43;3.25;;;;;;;;;;5113421;28;20102;-60
2021/04/10 08:52:38;;;;;;;11.80;3.53;;;;;;;;;;5112867;28;20066;-59
2021/04/10 08:55:05;;;;;;;14.50;3.40;;;;;;;;;;5113175;28;20020;-59
2021/04/10 08:57:41;;;;;;;12.75;3.00;;;;;;;;;;5112756;28;20056;-59
2021/04/10 09:00:21;;;;;;;8.73;3.03;;;;;;;;;;5112798;28;20056;-60
2021/04/10 09:02:54;;;;;;;9.57;3.70;;;;;;;;;;5112743;28;20035;-59
2021/04/10 09:05:19;;;;;;;7.53;2.78;;;;;;;;;;5113198;28;20104;-59
2021/04/10 09:07:48;;;;;;;8.88;3.47;;;;;;;;;;5112184;28;20027;-59
2021/04/10 09:10:28;;;;;;;9.85;2.65;;;;;;;;;;5112675;28;20104;-59
2021/04/10 09:13:15;;;;;;;8.23;3.25;;;;;;;;;;5112707;28;20029;-59
2021/04/10 09:15:41;;;;;;;10.23;2.88;;;;;;;;;;5112275;28;20036;-60
2021/04/10 09:18:07;;;;;;;11.77;3.33;;;;;;;;;;5111933;28;20379;-59
2021/04/10 09:20:48;;;;;;;9.73;3.20;;;;;;;;;;5112313;28;20088;-59
2021/04/10 09:23:17;;;;;;;10.77;3.45;;;;;;;;;;5111325;28;20059;-59
2021/04/10 09:25:44;;;;;;;8.75;2.75;;;;;;;;;;5111825;28;20041;-59
2021/04/10 09:28:09;;;;;;;10.18;2.83;;;;;;;;;;5110934;28;20032;-58
2021/04/10 09:30:38;;;;;;;17.47;3.70;;;;;;;;;;5111413;28;20103;-58
2021/04/10 09:33:23;;;;;;;15.60;6.50;;;;;;;;;;5094133;28;20032;-59
2021/04/10 09:35:48;;;;;;;11.25;3.65;;;;;;;;;;5110114;28;20045;-59
2021/04/10 09:38:33;;;;;;;12.03;3.13;;;;;;;;;;5111976;28;20523;-58
2021/04/10 09:40:58;;;;;;;11.77;4.35;;;;;;;;;;5112298;28;20027;-59
2021/04/10 09:43:24;;;;;;;11.40;3.30;;;;;;;;;;5112364;28;20035;-59
2021/04/10 09:45:50;;;;;;;10.47;3.30;;;;;;;;;;5110420;28;20123;-59
2021/04/10 09:48:18;;;;;;;16.58;4.20;;;;;;;;;;5112147;28;20032;-59
2021/04/10 09:51:04;;;;;;;11.25;3.75;;;;;;;;;;5111266;28;20031;-59
2021/04/10 09:53:30;;;;;;;11.98;3.45;;;;;;;;;;5109840;28;20036;-60
2021/04/10 09:56:00;;;;;;;18.67;4.18;;;;;;;;;;5101897;28;20040;-59
2021/04/10 09:58:25;;;;;;;10.30;3.92;;;;;;;;;;5100880;28;20055;-59
2021/04/10 10:00:52;;;;;;;10.73;3.80;;;;;;;;;;5101027;28;20447;-59
2021/04/10 10:03:22;;;;;;;13.63;4.10;;;;;;;;;;5101478;28;20128;-59
2021/04/10 10:05:49;;;;;;;12.45;4.00;;;;;;;;;;5099018;28;20072;-60
2021/04/10 10:08:15;;;;;;;10.82;3.30;;;;;;;;;;5115715;28;20043;-59
2021/04/10 10:10:42;;;;;;;15.35;3.72;;;;;;;;;;5121739;28;20039;-58
2021/04/10 10:13:10;;;;;;;10.07;2.95;;;;;;;;;;5120559;28;20108;-59
2021/04/10 10:15:36;;;;;;;13.43;4.68;;;;;;;;;;5121776;28;20556;-59
2021/04/10 10:18:20;;;;;;;14.63;3.92;;;;;;;;;;5122949;28;20040;-59
2021/04/10 10:20:53;;;;;;;14.45;4.05;;;;;;;;;;5122016;28;20032;-59
2021/04/10 10:23:19;;;;;;;15.38;4.15;;;;;;;;;;5121002;28;20036;-59
2021/04/10 10:25:45;;;;;;;15.10;4.28;;;;;;;;;;5121603;28;20104;-59
2021/04/10 10:28:14;;;;;;;12.37;4.57;;;;;;;;;;5120206;28;20527;-59
2021/04/10 10:30:39;;;;;;;13.88;3.75;;;;;;;;;;5120767;28;20078;-60
2021/04/10 10:33:06;;;;;;;14.57;4.40;;;;;;;;;;5120874;28;20471;-60
2021/04/10 10:35:32;;;;;;;10.15;4.30;;;;;;;;;;5119058;28;20031;-59
2021/04/10 10:38:02;;;;;;;15.65;4.00;;;;;;;;;;5118332;28;20035;-59
2021/04/10 10:40:27;;;;;;;11.77;4.07;;;;;;;;;;5119233;28;20096;-59
2021/04/10 10:43:00;;;;;;;14.93;4.33;;;;;;;;;;5120637;28;20055;-59
2021/04/10 10:45:51;;;;;;;16.20;4.05;;;;;;;;;;5122747;28;20383;-59
2021/04/10 10:48:20;;;;;;;14.43;3.75;;;;;;;;;;5123503;28;20071;-59
2021/04/10 10:50:45;;;;;;;16.00;4.20;;;;;;;;;;5122332;28;20122;-59
2021/04/10 10:53:12;;;;;;;10.57;3.92;;;;;;;;;;5122153;28;20455;-59
2021/04/10 10:55:52;;;;;;;10.77;3.55;;;;;;;;;;5123897;28;20118;-60
2021/04/10 10:58:18;;;;;;;13.88;3.60;;;;;;;;;;5129060;28;20510;-60
2021/04/10 11:00:43;;;;;;;14.00;4.17;;;;;;;;;;5128826;28;20039;-59
2021/04/10 11:03:09;;;;;;;12.47;4.47;;;;;;;;;;5122836;28;20032;-60
2021/04/10 11:05:34;;;;;;;13.63;4.53;;;;;;;;;;5121369;28;20088;-60
2021/04/10 11:08:00;;;;;;;9.80;3.90;;;;;;;;;;5117105;28;20020;-60
2021/04/10 11:10:25;;;;;;;8.50;3.80;;;;;;;;;;5125890;28;20271;-60
2021/04/10 11:12:50;;;;;;;11.70;4.13;;;;;;;;;;5125829;28;20379;-58
2021/04/10 11:15:16;;;;;;;15.50;4.97;;;;;;;;;;5122676;28;20081;-59
2021/04/10 11:17:41;;;;;;;12.93;4.35;;;;;;;;;;5116853;28;20089;-59
2021/04/10 11:20:26;;;;;;;19.33;4.80;;;;;;;;;;5114105;28;20392;-59
2021/04/10 11:23:07;;;;;;;12.05;5.30;;;;;;;;;;5114685;28;20475;-58
2021/04/10 11:25:47;;;;;;;16.67;4.43;;;;;;;;;;5120281;28;20118;-59
2021/04/10 11:28:32;;;;;;;12.82;5.32;;;;;;;;;;5122031;28;20143;-59
2021/04/10 11:31:07;;;;;;;13.50;4.38;;;;;;;;;;5116145;28;20051;-59
2021/04/10 11:33:36;;;;;;;18.60;5.70;;;;;;;;;;5114312;28;20131;-60
2021/04/10 11:36:02;;;;;;;20.08;5.50;;;;;;;;;;5114737;28;20060;-59
2021/04/10 11:38:27;;;;;;;11.95;5.07;;;;;;;;;;5114870;28;20101;-59
2021/04/10 11:40:52;;;;;;;15.90;5.70;;;;;;;;;;5096292;28;20483;-59
2021/04/10 11:43:18;;;;;;;16.80;6.10;;;;;;;;;;5114967;28;20126;-60
2021/04/10 11:45:46;;;;;;;14.27;6.03;;;;;;;;;;5115091;28;20036;-59
2021/04/10 11:48:18;;;;;;;17.17;6.63;;;;;;;;;;5115478;28;20111;-59
2021/04/10 11:50:48;;;;;;;18.05;6.28;;;;;;;;;;5114059;28;20110;-60
2021/04/10 11:53:18;;;;;;;16.45;5.82;;;;;;;;;;5114221;28;20027;-60
2021/04/10 11:55:44;;;;;;;19.55;6.20;;;;;;;;;;5115127;28;20028;-59
2021/04/10 11:58:09;;;;;;;18.70;6.57;;;;;;;;;;5116215;28;20040;-60
2021/04/10 12:00:34;;;;;;;12.33;5.80;;;;;;;;;;5116242;28;20034;-59
2021/04/10 12:03:07;;;;;;;16.23;6.43;;;;;;;;;;5114690;28;20036;-60
2021/04/10 12:05:42;;;;;;;17.10;6.70;;;;;;;;;;5115668;28;20105;-59
2021/04/10 12:08:10;;;;;;;27.77;8.70;;;;;;;;;;5116715;28;20200;-59
2021/04/10 12:10:47;;;;;;;16.52;6.13;;;;;;;;;;5115758;28;20030;-59
2021/04/10 12:13:13;;;;;;;12.13;5.65;;;;;;;;;;5114921;28;20028;-59
2021/04/10 12:15:39;;;;;;;14.60;6.95;;;;;;;;;;5114372;28;20100;-59
2021/04/10 12:18:05;;;;;;;15.60;6.07;;;;;;;;;;5113335;28;20481;-59
2021/04/10 12:20:31;;;;;;;;;;;;;;;;;;5123351;27;20070;-59
2021/04/10 12:22:56;;;;;;;17.20;6.53;;;;;;;;;;5116609;28;19908;-58
2021/04/10 12:25:21;;;;;;;17.70;7.60;;;;;;;;;;5119949;28;20032;-60
2021/04/10 12:27:47;;;;;;;20.57;7.43;;;;;;;;;;5113804;28;20091;-59
2021/04/10 12:30:13;;;;;;;16.63;7.90;;;;;;;;;;5113600;28;20239;-59
2021/04/10 12:32:38;;;;;;;22.85;7.88;;;;;;;;;;5114065;28;20028;-59
2021/04/10 12:35:04;;;;;;;22.63;7.80;;;;;;;;;;5113529;27;20031;-58
2021/04/10 12:37:29;;;;;;;17.13;8.32;;;;;;;;;;5113307;28;20477;-59
2021/04/10 12:39:55;;;;;;;17.47;8.13;;;;;;;;;;5112596;28;20129;-59
2021/04/10 12:42:20;;;;;;;20.13;8.73;;;;;;;;;;5112283;28;20027;-59
2021/04/10 12:44:45;;;;;;;21.73;8.90;;;;;;;;;;5112315;28;20039;-60
2021/04/10 12:47:15;;;;;;;20.83;9.07;;;;;;;;;;5116482;28;20042;-60
2021/04/10 12:49:40;;;;;;;27.40;9.70;;;;;;;;;;5120886;28;20031;-60
2021/04/10 12:52:06;;;;;;;25.30;11.20;;;;;;;;;;5118931;27;20103;-59
2021/04/10 12:54:31;;;;;;;21.60;11.23;;;;;;;;;;5121438;28;20036;-59
2021/04/10 12:56:56;;;;;;;30.57;11.83;;;;;;;;;;5118113;28;20063;-61
2021/04/10 12:59:22;;;;;;;25.37;12.70;;;;;;;;;;5104532;28;20027;-60
2021/04/10 13:01:47;;;;;;;27.27;12.57;;;;;;;;;;5096930;28;20036;-60
2021/04/10 13:04:12;;;;;;;30.57;13.90;;;;;;;;;;5096658;28;20058;-61
2021/04/10 13:06:38;;;;;;;28.33;14.97;;;;;;;;;;5110238;28;20472;-60
2021/04/10 13:09:03;;;;;;;27.07;14.77;;;;;;;;;;5114156;28;20046;-60
2021/04/10 13:11:28;;;;;;;26.63;14.53;;;;;;;;;;5114001;28;20387;-60
2021/04/10 13:13:54;;;;;;;41.10;16.83;;;;;;;;;;5113242;28;20024;-58
2021/04/10 13:16:19;;;;;;;26.73;14.73;;;;;;;;;;5114421;28;20467;-59
2021/04/10 13:18:45;;;;;;;29.80;16.00;;;;;;;;;;5112427;28;20354;-59
2021/04/10 13:21:10;;;;;;;31.27;17.20;;;;;;;;;;5092729;28;20040;-58
2021/04/10 13:23:36;;;;;;;30.70;15.53;;;;;;;;;;5093526;28;20476;-59
2021/04/10 13:26:01;;;;;;;30.85;17.23;;;;;;;;;;5094108;28;20051;-58
2021/04/10 13:28:27;;;;;;;40.60;18.23;;;;;;;;;;5092851;28;20379;-59
2021/04/10 13:30:52;;;;;;;35.30;19.37;;;;;;;;;;5092049;28;20023;-59
2021/04/10 13:33:17;;;;;;;42.93;18.07;;;;;;;;;;5093048;28;20020;-58
2021/04/10 13:35:43;;;;;;;39.20;19.37;;;;;;;;;;5093000;28;20077;-58
2021/04/10 13:38:08;;;;;;;43.27;20.27;;;;;;;;;;5092810;28;20360;-58
2021/04/10 13:40:35;;;;;;;36.43;19.57;;;;;;;;;;5091257;28;20039;-59
2021/04/10 13:43:00;;;;;;;38.95;19.80;;;;;;;;;;5091803;28;20031;-59
2021/04/10 13:45:25;;;;;;;37.90;18.37;;;;;;;;;;5092402;28;20032;-58
2021/04/10 13:47:51;;;;;;;35.73;19.17;;;;;;;;;;5091638;28;20036;-58
2021/04/10 13:50:18;;;;;;;31.67;17.77;;;;;;;;;;5091294;28;20054;-59
2021/04/10 13:52:45;;;;;;;33.60;17.75;;;;;;;;;;5091762;28;20429;-58
2021/04/10 13:55:10;;;;;;;31.60;17.35;;;;;;;;;;5092105;28;20028;-58
2021/04/10 13:57:36;;;;;;;35.23;19.10;;;;;;;;;;5091387;28;20062;-58
2021/04/10 14:00:03;;;;;;;32.07;17.33;;;;;;;;;;5092154;28;20307;-58
2021/04/10 14:02:37;;;;;;;30.50;17.27;;;;;;;;;;5092436;28;20499;-61
2021/04/10 14:05:05;;;;;;;39.13;19.60;;;;;;;;;;5091865;28;20031;-59
2021/04/10 14:07:31;;;;;;;41.08;18.10;;;;;;;;;;5092281;28;20016;-60
2021/04/10 14:09:57;;;;;;;29.83;17.55;;;;;;;;;;5092329;28;20028;-59
2021/04/10 14:12:23;;;;;;;35.80;16.83;;;;;;;;;;5092074;28;20471;-58
2021/04/10 14:14:48;;;;;;;38.70;17.13;;;;;;;;;;5092599;28;20024;-59
2021/04/10 14:17:14;;;;;;;33.67;15.40;;;;;;;;;;5091895;28;20028;-59
2021/04/10 14:19:39;;;;;;;30.87;16.80;;;;;;;;;;5096904;28;20154;-59
2021/04/10 14:22:04;;;;;;;31.53;15.63;;;;;;;;;;5095451;28;20063;-57
2021/04/10 14:24:30;;;;;;;29.53;15.00;;;;;;;;;;5096248;28;20028;-59
2021/04/10 14:26:55;;;;;;;30.67;15.70;;;;;;;;;;5095102;28;20040;-60
2021/04/10 14:29:20;;;;;;;40.97;17.53;;;;;;;;;;5094140;28;20032;-59
2021/04/10 14:31:46;;;;;;;33.53;15.33;;;;;;;;;;5099060;28;20032;-59
2021/04/10 14:34:12;;;;;;;27.67;15.33;;;;;;;;;;5098330;28;20040;-60